CYEG/YEG METAR and TAF weather

Enter ICAO airport designator
Station Type Date Time Source
CYEG METAR 2019/02/23 17:00 UTC NOAA

CYEG 231700Z 35013KT 8SM -SN DRSN OVC030 M15/M20 A3032 RMK SC8 SLP327


Station Type Date Time Source
CYEG Decoded METAR 2019/02/23 17:00 UTC NOAA

Edmonton International, Alta., Canada (CYEG) 53-18N 113-35W 723M
Feb 23, 2019 - 12:00 PM EST / 2019.02.23 1700 UTC
Wind: from the N (350 degrees) at 15 MPH (13 KT):0
Visibility: 8 mile(s):0
Sky conditions: overcast
Weather: light snow; low drifting snow
Temperature: 5 F (-15 C)
Windchill: -13 F (-25 C):2
Dew Point: -4 F (-20 C)
Relative Humidity: 65%
Pressure (altimeter): 30.32 in. Hg (1026 hPa)
ob: CYEG 231700Z 35013KT 8SM -SN DRSN OVC030 M15/M20 A3032 RMK SC8 SLP327
cycle: 17

Station Type Date Time Source
CYEG TAF 2019/02/23 18:49 UTC NOAA

TAF CYEG 231743Z 2318/2418 33012KT P6SM SCT020 OVC030
TEMPO 2318/2321 2SM -SN OVC020
FM232100 34012KT P6SM SCT030
BECMG 2322/2324 35008KT
FM240200 34006KT P6SM SKC
BECMG 2404/2406 VRB03KT
RMK NXT FCST BY 232100Z


Example: see airport list